sensor_id;sensor_type;location;lat;lon;timestamp;pressure;altitude;pressure_sealevel;temperature;humidity
12969;BME280;6549;53.128;8.182;2023-06-05T00:01:49;102158.31;;;9.88;100.00
12969;BME280;6549;53.128;8.182;2023-06-05T00:04:51;102159.91;;;9.89;100.00
12969;BME280;6549;53.128;8.182;2023-06-05T00:07:52;102159.34;;;9.83;100.00
12969;BME280;6549;53.128;8.182;2023-06-05T00:10:52;102163.22;;;9.82;100.00
12969;BME280;6549;53.128;8.182;2023-06-05T00:13:52;102161.97;;;9.80;100.00
12969;BME280;6549;53.128;8.182;2023-06-05T00:16:53;102161.53;;;9.78;100.00
12969;BME280;6549;53.128;8.182;2023-06-05T00:19:53;102156.38;;;9.76;100.00
12969;BME280;6549;53.128;8.182;2023-06-05T00:22:54;102153.97;;;9.75;100.00
12969;BME280;6549;53.128;8.182;2023-06-05T00:25:55;102163.81;;;9.76;100.00
12969;BME280;6549;53.128;8.182;2023-06-05T00:28:55;102160.97;;;9.72;100.00
12969;BME280;6549;53.128;8.182;2023-06-05T00:31:55;102157.44;;;9.72;100.00
12969;BME280;6549;53.128;8.182;2023-06-05T00:34:56;102156.28;;;9.73;100.00
12969;BME280;6549;53.128;8.182;2023-06-05T00:37:56;102149.75;;;9.65;100.00
12969;BME280;6549;53.128;8.182;2023-06-05T00:40:56;102157.44;;;9.60;100.00
12969;BME280;6549;53.128;8.182;2023-06-05T00:43:57;102160.84;;;9.57;100.00
12969;BME280;6549;53.128;8.182;2023-06-05T00:46:57;102158.00;;;9.53;100.00
12969;BME280;6549;53.128;8.182;2023-06-05T00:49:59;102156.78;;;9.51;100.00
12969;BME280;6549;53.128;8.182;2023-06-05T00:53:03;102147.94;;;9.57;100.00
12969;BME280;6549;53.128;8.182;2023-06-05T00:56:06;102147.84;;;9.54;100.00
12969;BME280;6549;53.128;8.182;2023-06-05T00:59:07;102154.03;;;9.51;100.00
12969;BME280;6549;53.128;8.182;2023-06-05T01:02:07;102151.94;;;9.47;100.00
12969;BME280;6549;53.128;8.182;2023-06-05T01:05:08;102149.19;;;9.47;100.00
12969;BME280;6549;53.128;8.182;2023-06-05T01:08:09;102150.22;;;9.43;100.00
12969;BME280;6549;53.128;8.182;2023-06-05T01:14:42;102143.97;;;9.42;100.00
12969;BME280;6549;53.128;8.182;2023-06-05T01:17:46;102141.09;;;9.39;100.00
12969;BME280;6549;53.128;8.182;2023-06-05T01:20:47;102137.53;;;9.38;100.00
12969;BME280;6549;53.128;8.182;2023-06-05T01:23:47;102137.09;;;9.36;100.00
12969;BME280;6549;53.128;8.182;2023-06-05T01:26:54;102128.88;;;9.36;100.00
12969;BME280;6549;53.128;8.182;2023-06-05T01:30:09;102118.22;;;9.35;100.00
12969;BME280;6549;53.128;8.182;2023-06-05T01:33:22;102122.00;;;9.30;100.00
12969;BME280;6549;53.128;8.182;2023-06-05T01:36:26;102121.09;;;9.26;100.00
12969;BME280;6549;53.128;8.182;2023-06-05T01:39:26;102119.50;;;9.25;100.00
12969;BME280;6549;53.128;8.182;2023-06-05T01:42:27;102119.84;;;9.24;100.00
12969;BME280;6549;53.128;8.182;2023-06-05T01:45:29;102119.84;;;9.24;100.00
12969;BME280;6549;53.128;8.182;2023-06-05T01:48:30;102118.94;;;9.20;100.00
12969;BME280;6549;53.128;8.182;2023-06-05T01:51:32;102114.81;;;9.14;100.00
12969;BME280;6549;53.128;8.182;2023-06-05T01:54:32;102119.06;;;9.11;100.00
12969;BME280;6549;53.128;8.182;2023-06-05T01:57:34;102113.09;;;9.09;100.00
12969;BME280;6549;53.128;8.182;2023-06-05T02:00:34;102113.31;;;9.04;100.00
12969;BME280;6549;53.128;8.182;2023-06-05T02:03:36;102110.13;;;9.02;100.00
12969;BME280;6549;53.128;8.182;2023-06-05T02:06:36;102105.78;;;9.01;100.00
12969;BME280;6549;53.128;8.182;2023-06-05T02:09:43;102109.44;;;9.05;100.00
12969;BME280;6549;53.128;8.182;2023-06-05T02:12:43;102105.09;;;9.04;100.00
12969;BME280;6549;53.128;8.182;2023-06-05T02:15:43;102107.41;;;9.02;100.00
12969;BME280;6549;53.128;8.182;2023-06-05T02:18:45;102105.78;;;9.01;100.00
12969;BME280;6549;53.128;8.182;2023-06-05T02:21:48;102104.06;;;8.96;100.00
12969;BME280;6549;53.128;8.182;2023-06-05T02:24:49;102105.09;;;8.92;100.00
12969;BME280;6549;53.128;8.182;2023-06-05T02:27:51;102101.44;;;8.88;100.00
12969;BME280;6549;53.128;8.182;2023-06-05T02:30:53;102101.44;;;8.88;100.00
12969;BME280;6549;53.128;8.182;2023-06-05T02:33:54;102095.47;;;8.86;100.00
12969;BME280;6549;53.128;8.182;2023-06-05T02:36:55;102093.53;;;8.74;100.00
12969;BME280;6549;53.128;8.182;2023-06-05T02:39:55;102092.16;;;8.68;100.00
12969;BME280;6549;53.128;8.182;2023-06-05T02:42:56;102092.16;;;8.68;100.00
12969;BME280;6549;53.128;8.182;2023-06-05T02:45:56;102096.16;;;8.71;100.00
12969;BME280;6549;53.128;8.182;2023-06-05T02:48:56;102092.63;;;8.70;100.00
12969;BME280;6549;53.128;8.182;2023-06-05T02:51:57;102089.06;;;8.70;100.00
12969;BME280;6549;53.128;8.182;2023-06-05T02:54:57;102091.34;;;8.68;100.00
12969;BME280;6549;53.128;8.182;2023-06-05T02:57:57;102087.69;;;8.64;100.00
12969;BME280;6549;53.128;8.182;2023-06-05T03:00:58;102082.41;;;8.58;100.00
12969;BME280;6549;53.128;8.182;2023-06-05T03:04:01;102092.13;;;8.56;100.00
12969;BME280;6549;53.128;8.182;2023-06-05T03:07:02;102091.00;;;8.57;100.00
12969;BME280;6549;53.128;8.182;2023-06-05T03:10:04;102076.72;;;8.51;100.00
12969;BME280;6549;53.128;8.182;2023-06-05T03:13:04;102085.13;;;8.46;100.00
12969;BME280;6549;53.128;8.182;2023-06-05T03:16:05;102084.81;;;8.48;100.00
12969;BME280;6549;53.128;8.182;2023-06-05T03:19:05;102089.47;;;8.47;100.00
12969;BME280;6549;53.128;8.182;2023-06-05T03:22:06;102087.88;;;8.46;100.00
12969;BME280;6549;53.128;8.182;2023-06-05T03:25:07;102084.69;;;8.44;100.00
12969;BME280;6549;53.128;8.182;2023-06-05T03:28:08;102079.88;;;8.41;100.00
12969;BME280;6549;53.128;8.182;2023-06-05T03:31:08;102078.63;;;8.39;100.00
12969;BME280;6549;53.128;8.182;2023-06-05T03:34:10;102081.69;;;8.37;100.00
12969;BME280;6549;53.128;8.182;2023-06-05T03:37:10;102080.88;;;8.37;100.00
12969;BME280;6549;53.128;8.182;2023-06-05T03:40:12;102081.34;;;8.39;100.00
12969;BME280;6549;53.128;8.182;2023-06-05T03:43:12;102078.06;;;8.45;100.00
12969;BME280;6549;53.128;8.182;2023-06-05T03:46:12;102075.78;;;8.47;100.00
12969;BME280;6549;53.128;8.182;2023-06-05T03:49:18;102066.88;;;8.50;100.00
12969;BME280;6549;53.128;8.182;2023-06-05T03:52:20;102077.97;;;8.54;100.00
12969;BME280;6549;53.128;8.182;2023-06-05T03:55:24;102078.66;;;8.51;100.00
12969;BME280;6549;53.128;8.182;2023-06-05T03:58:24;102081.38;;;8.51;100.00
12969;BME280;6549;53.128;8.182;2023-06-05T04:01:26;102085.63;;;8.48;100.00
12969;BME280;6549;53.128;8.182;2023-06-05T04:04:27;102085.41;;;8.53;100.00
12969;BME280;6549;53.128;8.182;2023-06-05T04:07:27;102078.22;;;8.61;100.00
12969;BME280;6549;53.128;8.182;2023-06-05T04:10:27;102074.56;;;8.69;100.00
12969;BME280;6549;53.128;8.182;2023-06-05T04:13:27;102089.09;;;8.82;100.00
12969;BME280;6549;53.128;8.182;2023-06-05T04:16:28;102085.00;;;8.88;100.00
12969;BME280;6549;53.128;8.182;2023-06-05T04:19:29;102081.00;;;8.97;100.00
12969;BME280;6549;53.128;8.182;2023-06-05T04:22:30;102077.44;;;9.09;100.00
12969;BME280;6549;53.128;8.182;2023-06-05T04:25:31;102080.53;;;9.20;100.00
12969;BME280;6549;53.128;8.182;2023-06-05T04:28:31;102078.00;;;9.27;100.00
12969;BME280;6549;53.128;8.182;2023-06-05T04:31:32;102077.56;;;9.37;100.00
12969;BME280;6549;53.128;8.182;2023-06-05T04:34:32;102081.50;;;9.52;100.00
12969;BME280;6549;53.128;8.182;2023-06-05T04:37:32;102079.91;;;9.63;100.00
12969;BME280;6549;53.128;8.182;2023-06-05T04:40:33;102084.44;;;9.71;100.00
12969;BME280;6549;53.128;8.182;2023-06-05T04:43:34;102077.69;;;9.80;100.00
12969;BME280;6549;53.128;8.182;2023-06-05T04:46:34;102076.72;;;9.88;100.00
12969;BME280;6549;53.128;8.182;2023-06-05T04:49:38;102080.13;;;9.98;100.00
12969;BME280;6549;53.128;8.182;2023-06-05T04:52:39;102079.28;;;10.09;100.00
12969;BME280;6549;53.128;8.182;2023-06-05T04:55:40;102076.41;;;10.18;100.00
12969;BME280;6549;53.128;8.182;2023-06-05T04:58:40;102080.34;;;10.32;100.00
12969;BME280;6549;53.128;8.182;2023-06-05T05:01:41;102086.22;;;10.47;100.00
12969;BME280;6549;53.128;8.182;2023-06-05T05:04:41;102092.53;;;10.63;100.00
12969;BME280;6549;53.128;8.182;2023-06-05T05:07:42;102089.44;;;10.80;100.00
12969;BME280;6549;53.128;8.182;2023-06-05T05:10:42;102082.00;;;10.96;100.00
12969;BME280;6549;53.128;8.182;2023-06-05T05:13:43;102090.78;;;11.17;100.00
12969;BME280;6549;53.128;8.182;2023-06-05T05:16:44;102086.22;;;11.41;100.00
12969;BME280;6549;53.128;8.182;2023-06-05T05:19:45;102088.84;;;11.53;100.00
12969;BME280;6549;53.128;8.182;2023-06-05T05:22:45;102087.72;;;11.73;100.00
12969;BME280;6549;53.128;8.182;2023-06-05T05:25:46;102093.41;;;11.99;100.00
12969;BME280;6549;53.128;8.182;2023-06-05T05:28:47;102091.44;;;12.19;100.00
12969;BME280;6549;53.128;8.182;2023-06-05T05:31:47;102095.13;;;12.27;100.00
12969;BME280;6549;53.128;8.182;2023-06-05T05:34:48;102093.38;;;12.38;100.00
12969;BME280;6549;53.128;8.182;2023-06-05T05:37:50;102088.25;;;12.59;100.00
12969;BME280;6549;53.128;8.182;2023-06-05T05:40:51;102092.19;;;12.81;100.00
12969;BME280;6549;53.128;8.182;2023-06-05T05:43:51;102092.25;;;12.84;100.00
12969;BME280;6549;53.128;8.182;2023-06-05T05:46:51;102091.19;;;12.92;100.00
12969;BME280;6549;53.128;8.182;2023-06-05T05:49:52;102092.00;;;13.16;100.00
12969;BME280;6549;53.128;8.182;2023-06-05T05:52:52;102091.78;;;13.28;100.00
12969;BME280;6549;53.128;8.182;2023-06-05T05:55:53;102092.31;;;13.37;100.00
12969;BME280;6549;53.128;8.182;2023-06-05T05:58:53;102087.31;;;13.46;100.00
12969;BME280;6549;53.128;8.182;2023-06-05T06:01:54;102092.09;;;13.75;100.00
12969;BME280;6549;53.128;8.182;2023-06-05T06:04:54;102089.28;;;14.05;100.00
12969;BME280;6549;53.128;8.182;2023-06-05T06:07:54;102087.03;;;14.14;100.00
12969;BME280;6549;53.128;8.182;2023-06-05T06:10:55;102089.16;;;14.28;100.00
12969;BME280;6549;53.128;8.182;2023-06-05T06:13:55;102092.81;;;14.35;100.00
12969;BME280;6549;53.128;8.182;2023-06-05T06:16:55;102095.72;;;14.46;100.00
12969;BME280;6549;53.128;8.182;2023-06-05T06:19:57;102099.47;;;14.64;100.00
12969;BME280;6549;53.128;8.182;2023-06-05T06:22:57;102096.22;;;14.55;100.00
12969;BME280;6549;53.128;8.182;2023-06-05T06:25:58;102099.31;;;14.50;100.00
12969;BME280;6549;53.128;8.182;2023-06-05T06:28:58;102093.44;;;14.55;100.00
12969;BME280;6549;53.128;8.182;2023-06-05T06:32:00;102092.00;;;14.68;100.00
12969;BME280;6549;53.128;8.182;2023-06-05T06:35:00;102093.31;;;14.85;100.00
12969;BME280;6549;53.128;8.182;2023-06-05T06:38:00;102103.38;;;15.04;100.00
12969;BME280;6549;53.128;8.182;2023-06-05T06:41:01;102103.16;;;15.26;100.00
12969;BME280;6549;53.128;8.182;2023-06-05T06:44:02;102105.50;;;15.24;100.00
12969;BME280;6549;53.128;8.182;2023-06-05T06:47:03;102107.94;;;15.33;100.00
12969;BME280;6549;53.128;8.182;2023-06-05T06:50:04;102105.38;;;15.61;100.00
12969;BME280;6549;53.128;8.182;2023-06-05T06:53:04;102105.47;;;15.79;100.00
12969;BME280;6549;53.128;8.182;2023-06-05T06:56:05;102106.75;;;15.96;100.00
12969;BME280;6549;53.128;8.182;2023-06-05T06:59:15;102111.66;;;16.41;100.00
12969;BME280;6549;53.128;8.182;2023-06-05T07:02:17;102119.28;;;16.80;100.00
12969;BME280;6549;53.128;8.182;2023-06-05T07:05:18;102126.81;;;17.00;100.00
12969;BME280;6549;53.128;8.182;2023-06-05T07:08:19;102126.03;;;16.93;100.00
12969;BME280;6549;53.128;8.182;2023-06-05T07:11:20;102124.44;;;16.92;100.00
12969;BME280;6549;53.128;8.182;2023-06-05T07:14:22;102126.03;;;16.89;100.00
12969;BME280;6549;53.128;8.182;2023-06-05T07:17:22;102129.59;;;16.86;100.00
12969;BME280;6549;53.128;8.182;2023-06-05T07:20:22;102128.44;;;16.98;100.00
12969;BME280;6549;53.128;8.182;2023-06-05T07:23:23;102129.63;;;17.11;100.00
12969;BME280;6549;53.128;8.182;2023-06-05T07:26:23;102124.44;;;17.31;100.00
12969;BME280;6549;53.128;8.182;2023-06-05T07:29:25;102124.38;;;17.80;100.00
12969;BME280;6549;53.128;8.182;2023-06-05T07:32:25;102129.13;;;17.87;100.00
12969;BME280;6549;53.128;8.182;2023-06-05T07:35:25;102127.50;;;18.00;100.00
12969;BME280;6549;53.128;8.182;2023-06-05T07:38:26;102114.72;;;18.13;100.00
12969;BME280;6549;53.128;8.182;2023-06-05T07:41:26;102115.06;;;18.22;100.00
12969;BME280;6549;53.128;8.182;2023-06-05T07:44:27;102107.63;;;17.98;100.00
12969;BME280;6549;53.128;8.182;2023-06-05T07:47:27;102103.97;;;18.12;100.00
12969;BME280;6549;53.128;8.182;2023-06-05T07:50:27;102096.78;;;18.21;100.00
12969;BME280;6549;53.128;8.182;2023-06-05T07:53:28;102102.50;;;18.66;100.00
12969;BME280;6549;53.128;8.182;2023-06-05T07:56:29;102103.19;;;18.84;100.00
12969;BME280;6549;53.128;8.182;2023-06-05T07:59:31;102109.41;;;19.02;100.00
12969;BME280;6549;53.128;8.182;2023-06-05T08:02:32;102108.31;;;19.34;100.00
12969;BME280;6549;53.128;8.182;2023-06-05T08:05:33;102108.50;;;19.16;100.00
12969;BME280;6549;53.128;8.182;2023-06-05T08:08:34;102118.78;;;19.22;100.00
12969;BME280;6549;53.128;8.182;2023-06-05T08:11:38;102112.41;;;19.22;100.00
12969;BME280;6549;53.128;8.182;2023-06-05T08:14:39;102109.09;;;19.34;100.00
12969;BME280;6549;53.128;8.182;2023-06-05T08:17:39;102109.03;;;19.45;100.00
12969;BME280;6549;53.128;8.182;2023-06-05T08:20:39;102106.44;;;19.64;100.00
12969;BME280;6549;53.128;8.182;2023-06-05T08:23:40;102111.28;;;19.94;100.00
12969;BME280;6549;53.128;8.182;2023-06-05T08:26:40;102106.63;;;20.14;100.00
12969;BME280;6549;53.128;8.182;2023-06-05T08:29:40;102105.75;;;20.21;100.00
12969;BME280;6549;53.128;8.182;2023-06-05T08:32:41;102098.34;;;20.38;100.00
12969;BME280;6549;53.128;8.182;2023-06-05T08:35:41;102092.09;;;20.30;100.00
12969;BME280;6549;53.128;8.182;2023-06-05T08:38:42;102094.03;;;20.60;100.00
12969;BME280;6549;53.128;8.182;2023-06-05T08:41:43;102091.56;;;20.39;100.00
12969;BME280;6549;53.128;8.182;2023-06-05T08:44:45;102091.25;;;20.60;100.00
12969;BME280;6549;53.128;8.182;2023-06-05T08:47:50;102089.22;;;20.87;100.00
12969;BME280;6549;53.128;8.182;2023-06-05T08:50:52;102094.19;;;20.99;100.00
12969;BME280;6549;53.128;8.182;2023-06-05T08:54:04;102093.47;;;20.95;100.00
12969;BME280;6549;53.128;8.182;2023-06-05T08:57:06;102086.66;;;20.73;100.00
12969;BME280;6549;53.128;8.182;2023-06-05T09:00:07;102084.50;;;20.84;100.00
12969;BME280;6549;53.128;8.182;2023-06-05T09:03:11;102086.91;;;21.05;100.00
12969;BME280;6549;53.128;8.182;2023-06-05T09:06:15;102092.81;;;21.34;100.00
12969;BME280;6549;53.128;8.182;2023-06-05T09:09:15;102084.31;;;20.95;100.00
12969;BME280;6549;53.128;8.182;2023-06-05T09:12:15;102088.47;;;21.53;100.00
12969;BME280;6549;53.128;8.182;2023-06-05T09:15:25;102084.69;;;20.97;100.00
12969;BME280;6549;53.128;8.182;2023-06-05T09:18:25;102078.59;;;21.68;100.00
12969;BME280;6549;53.128;8.182;2023-06-05T09:21:29;102087.53;;;22.19;99.26
12969;BME280;6549;53.128;8.182;2023-06-05T09:24:31;102077.84;;;22.39;85.27
12969;BME280;6549;53.128;8.182;2023-06-05T09:27:31;102089.06;;;21.84;94.95
12969;BME280;6549;53.128;8.182;2023-06-05T09:30:31;102082.50;;;22.30;100.00
12969;BME280;6549;53.128;8.182;2023-06-05T09:33:33;102082.31;;;22.21;99.60
12969;BME280;6549;53.128;8.182;2023-06-05T09:36:34;102076.78;;;22.86;87.95
12969;BME280;6549;53.128;8.182;2023-06-05T09:39:49;102079.41;;;23.09;81.92
12969;BME280;6549;53.128;8.182;2023-06-05T09:42:49;102081.06;;;23.06;87.43
12969;BME280;6549;53.128;8.182;2023-06-05T09:45:50;102074.81;;;22.50;78.65
12969;BME280;6549;53.128;8.182;2023-06-05T09:48:57;102070.69;;;22.74;82.98
12969;BME280;6549;53.128;8.182;2023-06-05T09:52:01;102078.00;;;22.84;81.97
12969;BME280;6549;53.128;8.182;2023-06-05T09:55:02;102069.50;;;22.88;80.78
12969;BME280;6549;53.128;8.182;2023-06-05T09:58:04;102072.88;;;22.83;80.49
12969;BME280;6549;53.128;8.182;2023-06-05T10:01:16;102068.63;;;23.07;86.48
12969;BME280;6549;53.128;8.182;2023-06-05T10:04:22;102075.06;;;22.92;83.65
12969;BME280;6549;53.128;8.182;2023-06-05T10:07:23;102087.53;;;22.19;91.13
12969;BME280;6549;53.128;8.182;2023-06-05T10:10:24;102071.47;;;21.83;88.75
12969;BME280;6549;53.128;8.182;2023-06-05T10:13:26;102062.22;;;22.42;88.25
12969;BME280;6549;53.128;8.182;2023-06-05T10:16:27;102063.31;;;22.80;87.94
12969;BME280;6549;53.128;8.182;2023-06-05T10:19:31;102061.59;;;22.67;86.91
12969;BME280;6549;53.128;8.182;2023-06-05T10:22:33;102057.16;;;23.02;88.50
12969;BME280;6549;53.128;8.182;2023-06-05T10:25:35;102067.28;;;23.44;89.05
12969;BME280;6549;53.128;8.182;2023-06-05T10:28:56;102061.94;;;23.62;78.16
12969;BME280;6549;53.128;8.182;2023-06-05T10:32:23;102064.78;;;23.46;81.30
12969;BME280;6549;53.128;8.182;2023-06-05T10:36:06;102055.34;;;23.40;84.97
12969;BME280;6549;53.128;8.182;2023-06-05T10:39:11;102052.97;;;22.77;84.05
12969;BME280;6549;53.128;8.182;2023-06-05T10:42:22;102046.69;;;22.73;95.77
12969;BME280;6549;53.128;8.182;2023-06-05T10:45:40;102047.00;;;22.75;88.50
12969;BME280;6549;53.128;8.182;2023-06-05T10:49:10;102047.72;;;22.79;83.91
12969;BME280;6549;53.128;8.182;2023-06-05T10:52:35;102052.84;;;23.42;83.87
12969;BME280;6549;53.128;8.182;2023-06-05T10:55:42;102051.00;;;23.23;88.88
12969;BME280;6549;53.128;8.182;2023-06-05T10:59:12;102047.56;;;23.32;87.27
12969;BME280;6549;53.128;8.182;2023-06-05T11:05:16;102044.13;;;23.24;84.05
12969;BME280;6549;53.128;8.182;2023-06-05T11:08:17;102037.00;;;23.52;85.42
12969;BME280;6549;53.128;8.182;2023-06-05T11:11:20;102043.66;;;23.13;82.77
12969;BME280;6549;53.128;8.182;2023-06-05T11:14:21;102046.78;;;23.31;82.27
12969;BME280;6549;53.128;8.182;2023-06-05T11:17:35;102031.81;;;23.50;88.14
12969;BME280;6549;53.128;8.182;2023-06-05T11:23:36;102031.59;;;23.00;87.01
12969;BME280;6549;53.128;8.182;2023-06-05T11:26:40;102033.59;;;23.44;84.87
12969;BME280;6549;53.128;8.182;2023-06-05T11:29:42;102024.94;;;23.80;78.82
12969;BME280;6549;53.128;8.182;2023-06-05T11:32:44;102028.69;;;24.02;75.94
12969;BME280;6549;53.128;8.182;2023-06-05T11:35:47;102028.50;;;24.22;77.13
12969;BME280;6549;53.128;8.182;2023-06-05T11:38:54;102028.81;;;24.49;84.74
12969;BME280;6549;53.128;8.182;2023-06-05T11:41:58;102031.56;;;24.75;73.50
12969;BME280;6549;53.128;8.182;2023-06-05T11:44:58;102042.97;;;24.58;76.75
12969;BME280;6549;53.128;8.182;2023-06-05T11:48:09;102038.50;;;24.23;78.67
12969;BME280;6549;53.128;8.182;2023-06-05T11:51:10;102032.34;;;23.87;74.93
12969;BME280;6549;53.128;8.182;2023-06-05T11:54:10;102039.84;;;24.19;70.12
12969;BME280;6549;53.128;8.182;2023-06-05T11:57:15;102028.63;;;23.77;79.58
12969;BME280;6549;53.128;8.182;2023-06-05T12:00:23;102021.88;;;23.62;80.33
12969;BME280;6549;53.128;8.182;2023-06-05T12:03:24;102026.00;;;24.11;87.93
12969;BME280;6549;53.128;8.182;2023-06-05T12:06:24;102016.00;;;24.10;80.65
12969;BME280;6549;53.128;8.182;2023-06-05T12:09:24;102019.47;;;24.52;78.85
12969;BME280;6549;53.128;8.182;2023-06-05T12:12:27;102027.56;;;24.12;78.47
12969;BME280;6549;53.128;8.182;2023-06-05T12:15:27;102019.16;;;24.50;77.72
12969;BME280;6549;53.128;8.182;2023-06-05T12:18:33;102017.38;;;23.64;82.51
12969;BME280;6549;53.128;8.182;2023-06-05T12:21:33;102017.38;;;24.19;76.54
12969;BME280;6549;53.128;8.182;2023-06-05T12:24:34;102017.44;;;23.90;75.24
12969;BME280;6549;53.128;8.182;2023-06-05T12:27:34;102017.03;;;24.16;76.20
12969;BME280;6549;53.128;8.182;2023-06-05T12:30:41;102011.47;;;23.75;72.58
12969;BME280;6549;53.128;8.182;2023-06-05T12:33:48;102015.19;;;23.85;77.13
12969;BME280;6549;53.128;8.182;2023-06-05T12:36:49;102006.34;;;24.11;78.58
12969;BME280;6549;53.128;8.182;2023-06-05T12:39:50;102018.78;;;24.61;73.54
12969;BME280;6549;53.128;8.182;2023-06-05T12:42:50;102013.53;;;24.50;73.92
12969;BME280;6549;53.128;8.182;2023-06-05T12:45:51;102008.03;;;24.34;70.78
12969;BME280;6549;53.128;8.182;2023-06-05T12:48:51;102010.53;;;24.20;71.73
12969;BME280;6549;53.128;8.182;2023-06-05T12:51:51;102003.56;;;24.24;78.01
12969;BME280;6549;53.128;8.182;2023-06-05T12:54:53;102007.84;;;24.16;75.76
12969;BME280;6549;53.128;8.182;2023-06-05T12:57:54;102002.06;;;24.07;74.62
12969;BME280;6549;53.128;8.182;2023-06-05T13:00:54;102001.09;;;23.59;77.20
12969;BME280;6549;53.128;8.182;2023-06-05T13:03:55;101993.75;;;23.20;79.18
12969;BME280;6549;53.128;8.182;2023-06-05T13:06:55;101989.00;;;23.05;81.02
12969;BME280;6549;53.128;8.182;2023-06-05T13:09:56;101987.31;;;22.78;82.78
12969;BME280;6549;53.128;8.182;2023-06-05T13:12:56;101980.13;;;23.35;82.44
12969;BME280;6549;53.128;8.182;2023-06-05T13:15:57;101978.50;;;23.50;75.38
12969;BME280;6549;53.128;8.182;2023-06-05T13:18:57;101978.19;;;23.48;75.75
12969;BME280;6549;53.128;8.182;2023-06-05T13:21:57;101984.38;;;23.56;78.19
12969;BME280;6549;53.128;8.182;2023-06-05T13:24:58;101978.75;;;22.98;79.26
12969;BME280;6549;53.128;8.182;2023-06-05T13:27:58;101974.16;;;23.33;85.01
12969;BME280;6549;53.128;8.182;2023-06-05T13:30:58;101974.47;;;23.51;79.89
12969;BME280;6549;53.128;8.182;2023-06-05T13:33:59;101970.28;;;24.10;79.09
12969;BME280;6549;53.128;8.182;2023-06-05T13:36:59;101964.56;;;24.26;71.65
12969;BME280;6549;53.128;8.182;2023-06-05T13:39:59;101959.50;;;23.83;77.54
12969;BME280;6549;53.128;8.182;2023-06-05T13:43:00;101964.09;;;24.15;76.83
12969;BME280;6549;53.128;8.182;2023-06-05T13:46:00;101957.56;;;23.26;75.05
12969;BME280;6549;53.128;8.182;2023-06-05T13:49:01;101960.56;;;23.48;76.27
12969;BME280;6549;53.128;8.182;2023-06-05T13:52:02;101962.03;;;23.52;78.07
12969;BME280;6549;53.128;8.182;2023-06-05T13:55:03;101955.56;;;23.93;75.06
12969;BME280;6549;53.128;8.182;2023-06-05T13:58:04;101952.41;;;23.37;76.56
12969;BME280;6549;53.128;8.182;2023-06-05T14:01:04;101949.84;;;23.84;77.73
12969;BME280;6549;53.128;8.182;2023-06-05T14:04:05;101952.19;;;23.86;74.47
12969;BME280;6549;53.128;8.182;2023-06-05T14:07:05;101948.00;;;23.65;76.60
12969;BME280;6549;53.128;8.182;2023-06-05T14:10:06;101954.16;;;23.47;75.55
12969;BME280;6549;53.128;8.182;2023-06-05T14:13:06;101956.63;;;23.45;76.89
12969;BME280;6549;53.128;8.182;2023-06-05T14:16:08;101954.53;;;22.59;78.97
12969;BME280;6549;53.128;8.182;2023-06-05T14:19:10;101956.84;;;22.48;79.58
12969;BME280;6549;53.128;8.182;2023-06-05T14:22:10;101948.41;;;22.64;79.93
12969;BME280;6549;53.128;8.182;2023-06-05T14:25:11;101945.13;;;22.69;83.42
12969;BME280;6549;53.128;8.182;2023-06-05T14:28:11;101949.63;;;22.79;78.09
12969;BME280;6549;53.128;8.182;2023-06-05T14:31:12;101942.03;;;23.09;79.46
12969;BME280;6549;53.128;8.182;2023-06-05T14:34:13;101941.06;;;22.70;76.69
12969;BME280;6549;53.128;8.182;2023-06-05T14:37:13;101937.81;;;22.72;80.44
12969;BME280;6549;53.128;8.182;2023-06-05T14:40:13;101939.03;;;22.71;78.34
12969;BME280;6549;53.128;8.182;2023-06-05T14:43:14;101946.84;;;22.15;79.59
12969;BME280;6549;53.128;8.182;2023-06-05T14:46:15;101937.06;;;21.71;84.16
12969;BME280;6549;53.128;8.182;2023-06-05T14:49:17;101933.88;;;21.69;83.61
12969;BME280;6549;53.128;8.182;2023-06-05T14:52:18;101933.63;;;21.63;87.32
12969;BME280;6549;53.128;8.182;2023-06-05T14:55:18;101932.06;;;21.78;87.95
12969;BME280;6549;53.128;8.182;2023-06-05T14:58:19;101932.47;;;21.97;85.07
12969;BME280;6549;53.128;8.182;2023-06-05T15:01:19;101942.66;;;21.87;82.66
12969;BME280;6549;53.128;8.182;2023-06-05T15:04:19;101931.69;;;21.60;84.44
12969;BME280;6549;53.128;8.182;2023-06-05T15:07:20;101939.41;;;21.36;83.92
12969;BME280;6549;53.128;8.182;2023-06-05T15:10:20;101932.28;;;21.51;85.06
12969;BME280;6549;53.128;8.182;2023-06-05T15:13:21;101928.50;;;21.42;82.66
12969;BME280;6549;53.128;8.182;2023-06-05T15:16:22;101928.16;;;20.54;88.17
12969;BME280;6549;53.128;8.182;2023-06-05T15:19:23;101922.97;;;20.76;88.10
12969;BME280;6549;53.128;8.182;2023-06-05T15:22:23;101916.22;;;20.96;88.89
12969;BME280;6549;53.128;8.182;2023-06-05T15:25:24;101914.44;;;20.63;88.21
12969;BME280;6549;53.128;8.182;2023-06-05T15:28:25;101921.38;;;20.55;92.04
12969;BME280;6549;53.128;8.182;2023-06-05T15:31:25;101913.97;;;20.68;93.99
12969;BME280;6549;53.128;8.182;2023-06-05T15:34:25;101914.09;;;20.38;92.19
12969;BME280;6549;53.128;8.182;2023-06-05T15:37:26;101909.66;;;20.40;94.52
12969;BME280;6549;53.128;8.182;2023-06-05T15:40:26;101902.81;;;20.18;94.92
12969;BME280;6549;53.128;8.182;2023-06-05T15:43:27;101899.38;;;19.84;92.41
12969;BME280;6549;53.128;8.182;2023-06-05T15:46:27;101899.81;;;20.09;95.71
12969;BME280;6549;53.128;8.182;2023-06-05T15:49:28;101906.66;;;20.04;94.21
12969;BME280;6549;53.128;8.182;2023-06-05T15:52:28;101902.16;;;19.57;98.87
12969;BME280;6549;53.128;8.182;2023-06-05T15:55:31;101905.81;;;19.81;100.00
12969;BME280;6549;53.128;8.182;2023-06-05T15:58:32;101899.31;;;19.91;96.85
12969;BME280;6549;53.128;8.182;2023-06-05T16:01:32;101901.38;;;19.83;97.52
12969;BME280;6549;53.128;8.182;2023-06-05T16:04:32;101899.44;;;19.53;95.68
12969;BME280;6549;53.128;8.182;2023-06-05T16:07:34;101898.22;;;19.24;100.00
12969;BME280;6549;53.128;8.182;2023-06-05T16:10:34;101897.03;;;19.21;100.00